sensor_id;sensor_type;location;lat;lon;timestamp;P1;durP1;ratioP1;P2;durP2;ratioP2
9675;SDS011;4876;42.656;23.292;2024-02-14T00:01:05;9.43;;;4.10;;
9675;SDS011;4876;42.656;23.292;2024-02-14T00:03:34;7.85;;;3.83;;
9675;SDS011;4876;42.656;23.292;2024-02-14T00:06:00;8.57;;;4.18;;
9675;SDS011;4876;42.656;23.292;2024-02-14T00:08:25;7.22;;;4.18;;
9675;SDS011;4876;42.656;23.292;2024-02-14T00:10:51;7.32;;;4.18;;
9675;SDS011;4876;42.656;23.292;2024-02-14T00:13:16;8.40;;;4.00;;
9675;SDS011;4876;42.656;23.292;2024-02-14T00:15:45;7.30;;;3.60;;
9675;SDS011;4876;42.656;23.292;2024-02-14T00:18:11;6.35;;;4.13;;
9675;SDS011;4876;42.656;23.292;2024-02-14T00:20:37;6.90;;;4.13;;
9675;SDS011;4876;42.656;23.292;2024-02-14T00:23:04;6.55;;;3.97;;
9675;SDS011;4876;42.656;23.292;2024-02-14T00:25:29;7.70;;;3.85;;
9675;SDS011;4876;42.656;23.292;2024-02-14T00:27:55;8.27;;;3.88;;
9675;SDS011;4876;42.656;23.292;2024-02-14T00:30:20;10.57;;;4.40;;
9675;SDS011;4876;42.656;23.292;2024-02-14T00:32:48;7.18;;;4.25;;
9675;SDS011;4876;42.656;23.292;2024-02-14T00:35:13;8.48;;;4.60;;
9675;SDS011;4876;42.656;23.292;2024-02-14T00:37:39;9.45;;;4.30;;
9675;SDS011;4876;42.656;23.292;2024-02-14T00:40:05;8.13;;;4.22;;
9675;SDS011;4876;42.656;23.292;2024-02-14T00:42:31;8.60;;;4.25;;
9675;SDS011;4876;42.656;23.292;2024-02-14T00:44:56;8.05;;;3.65;;
9675;SDS011;4876;42.656;23.292;2024-02-14T00:47:22;8.27;;;4.78;;
9675;SDS011;4876;42.656;23.292;2024-02-14T00:49:47;7.55;;;4.15;;
9675;SDS011;4876;42.656;23.292;2024-02-14T00:52:13;8.07;;;4.70;;
9675;SDS011;4876;42.656;23.292;2024-02-14T00:54:39;9.00;;;4.85;;
9675;SDS011;4876;42.656;23.292;2024-02-14T00:57:04;9.73;;;4.53;;
9675;SDS011;4876;42.656;23.292;2024-02-14T00:59:30;9.80;;;4.45;;
9675;SDS011;4876;42.656;23.292;2024-02-14T01:01:56;9.10;;;4.50;;
9675;SDS011;4876;42.656;23.292;2024-02-14T01:04:21;6.78;;;3.65;;
9675;SDS011;4876;42.656;23.292;2024-02-14T01:06:47;8.60;;;4.55;;
9675;SDS011;4876;42.656;23.292;2024-02-14T01:09:14;8.45;;;4.53;;
9675;SDS011;4876;42.656;23.292;2024-02-14T01:11:40;6.72;;;3.90;;
9675;SDS011;4876;42.656;23.292;2024-02-14T01:14:05;7.43;;;4.18;;
9675;SDS011;4876;42.656;23.292;2024-02-14T01:16:31;8.57;;;4.25;;
9675;SDS011;4876;42.656;23.292;2024-02-14T01:18:56;9.43;;;5.00;;
9675;SDS011;4876;42.656;23.292;2024-02-14T01:21:22;8.27;;;4.43;;
9675;SDS011;4876;42.656;23.292;2024-02-14T01:23:47;7.20;;;4.70;;
9675;SDS011;4876;42.656;23.292;2024-02-14T01:26:13;8.65;;;4.85;;
9675;SDS011;4876;42.656;23.292;2024-02-14T01:28:38;7.05;;;4.45;;
9675;SDS011;4876;42.656;23.292;2024-02-14T01:31:04;7.15;;;3.97;;
9675;SDS011;4876;42.656;23.292;2024-02-14T01:33:29;7.32;;;3.90;;
9675;SDS011;4876;42.656;23.292;2024-02-14T01:35:55;7.88;;;4.13;;
9675;SDS011;4876;42.656;23.292;2024-02-14T01:38:22;7.85;;;4.45;;
9675;SDS011;4876;42.656;23.292;2024-02-14T01:40:48;8.38;;;4.57;;
9675;SDS011;4876;42.656;23.292;2024-02-14T01:43:14;7.88;;;4.55;;
9675;SDS011;4876;42.656;23.292;2024-02-14T01:45:40;8.55;;;4.80;;
9675;SDS011;4876;42.656;23.292;2024-02-14T01:48:06;8.90;;;4.32;;
9675;SDS011;4876;42.656;23.292;2024-02-14T01:50:33;7.85;;;4.35;;
9675;SDS011;4876;42.656;23.292;2024-02-14T01:53:00;12.70;;;5.05;;
9675;SDS011;4876;42.656;23.292;2024-02-14T01:55:27;9.18;;;5.07;;
9675;SDS011;4876;42.656;23.292;2024-02-14T01:57:54;8.88;;;4.78;;
9675;SDS011;4876;42.656;23.292;2024-02-14T02:00:20;8.13;;;5.13;;
9675;SDS011;4876;42.656;23.292;2024-02-14T02:02:46;8.82;;;4.90;;
9675;SDS011;4876;42.656;23.292;2024-02-14T02:05:14;7.45;;;4.63;;
9675;SDS011;4876;42.656;23.292;2024-02-14T02:07:41;7.68;;;4.28;;
9675;SDS011;4876;42.656;23.292;2024-02-14T02:10:11;8.68;;;5.25;;
9675;SDS011;4876;42.656;23.292;2024-02-14T02:12:36;8.48;;;4.47;;
9675;SDS011;4876;42.656;23.292;2024-02-14T02:15:06;7.47;;;4.35;;
9675;SDS011;4876;42.656;23.292;2024-02-14T02:17:36;8.18;;;4.35;;
9675;SDS011;4876;42.656;23.292;2024-02-14T02:20:02;8.55;;;4.93;;
9675;SDS011;4876;42.656;23.292;2024-02-14T02:22:28;9.38;;;5.28;;
9675;SDS011;4876;42.656;23.292;2024-02-14T02:25:03;9.35;;;4.63;;
9675;SDS011;4876;42.656;23.292;2024-02-14T02:27:32;9.38;;;4.90;;
9675;SDS011;4876;42.656;23.292;2024-02-14T02:30:02;10.30;;;5.13;;
9675;SDS011;4876;42.656;23.292;2024-02-14T02:32:29;9.68;;;4.22;;
9675;SDS011;4876;42.656;23.292;2024-02-14T02:34:55;7.88;;;4.22;;
9675;SDS011;4876;42.656;23.292;2024-02-14T02:37:21;9.07;;;4.93;;
9675;SDS011;4876;42.656;23.292;2024-02-14T02:39:47;9.52;;;4.80;;
9675;SDS011;4876;42.656;23.292;2024-02-14T02:42:12;9.00;;;4.63;;
9675;SDS011;4876;42.656;23.292;2024-02-14T02:44:39;8.82;;;4.60;;
9675;SDS011;4876;42.656;23.292;2024-02-14T02:47:05;7.45;;;4.50;;
9675;SDS011;4876;42.656;23.292;2024-02-14T02:49:30;9.55;;;4.43;;
9675;SDS011;4876;42.656;23.292;2024-02-14T02:51:56;8.63;;;4.80;;
9675;SDS011;4876;42.656;23.292;2024-02-14T02:54:21;8.80;;;4.10;;
9675;SDS011;4876;42.656;23.292;2024-02-14T02:56:48;6.50;;;4.00;;
9675;SDS011;4876;42.656;23.292;2024-02-14T02:59:15;8.13;;;4.13;;
9675;SDS011;4876;42.656;23.292;2024-02-14T03:01:42;10.20;;;4.45;;
9675;SDS011;4876;42.656;23.292;2024-02-14T03:04:07;8.30;;;4.65;;
9675;SDS011;4876;42.656;23.292;2024-02-14T03:06:33;7.38;;;4.47;;
9675;SDS011;4876;42.656;23.292;2024-02-14T03:08:59;8.63;;;4.68;;
9675;SDS011;4876;42.656;23.292;2024-02-14T03:11:24;10.38;;;5.05;;
9675;SDS011;4876;42.656;23.292;2024-02-14T03:13:52;9.20;;;4.18;;
9675;SDS011;4876;42.656;23.292;2024-02-14T03:16:18;9.27;;;4.53;;
9675;SDS011;4876;42.656;23.292;2024-02-14T03:18:43;9.10;;;5.13;;
9675;SDS011;4876;42.656;23.292;2024-02-14T03:21:09;8.05;;;4.60;;
9675;SDS011;4876;42.656;23.292;2024-02-14T03:23:37;9.75;;;5.10;;
9675;SDS011;4876;42.656;23.292;2024-02-14T03:26:02;8.95;;;4.75;;
9675;SDS011;4876;42.656;23.292;2024-02-14T03:28:33;7.57;;;4.18;;
9675;SDS011;4876;42.656;23.292;2024-02-14T03:30:58;7.65;;;4.55;;
9675;SDS011;4876;42.656;23.292;2024-02-14T03:33:24;7.32;;;4.40;;
9675;SDS011;4876;42.656;23.292;2024-02-14T03:35:49;7.97;;;4.93;;
9675;SDS011;4876;42.656;23.292;2024-02-14T03:38:33;8.38;;;5.00;;
9675;SDS011;4876;42.656;23.292;2024-02-14T03:40:58;9.43;;;5.25;;
9675;SDS011;4876;42.656;23.292;2024-02-14T03:43:24;9.35;;;4.63;;
9675;SDS011;4876;42.656;23.292;2024-02-14T03:45:49;9.32;;;4.93;;
9675;SDS011;4876;42.656;23.292;2024-02-14T03:48:16;9.93;;;5.20;;
9675;SDS011;4876;42.656;23.292;2024-02-14T03:50:42;9.48;;;4.18;;
9675;SDS011;4876;42.656;23.292;2024-02-14T03:53:08;11.75;;;5.55;;
9675;SDS011;4876;42.656;23.292;2024-02-14T03:55:36;10.70;;;5.13;;
9675;SDS011;4876;42.656;23.292;2024-02-14T03:58:02;9.50;;;4.82;;
9675;SDS011;4876;42.656;23.292;2024-02-14T04:00:29;9.57;;;4.95;;
9675;SDS011;4876;42.656;23.292;2024-02-14T04:02:55;13.13;;;5.18;;
9675;SDS011;4876;42.656;23.292;2024-02-14T04:05:24;8.00;;;4.38;;
9675;SDS011;4876;42.656;23.292;2024-02-14T04:07:52;9.98;;;4.57;;
9675;SDS011;4876;42.656;23.292;2024-02-14T04:10:19;8.05;;;5.07;;
9675;SDS011;4876;42.656;23.292;2024-02-14T04:12:45;10.15;;;4.85;;
9675;SDS011;4876;42.656;23.292;2024-02-14T04:15:11;8.80;;;5.07;;
9675;SDS011;4876;42.656;23.292;2024-02-14T04:17:37;10.55;;;5.05;;
9675;SDS011;4876;42.656;23.292;2024-02-14T04:20:04;8.30;;;4.72;;
9675;SDS011;4876;42.656;23.292;2024-02-14T04:22:30;7.25;;;4.78;;
9675;SDS011;4876;42.656;23.292;2024-02-14T04:24:56;10.23;;;5.45;;
9675;SDS011;4876;42.656;23.292;2024-02-14T04:27:21;9.30;;;4.57;;
9675;SDS011;4876;42.656;23.292;2024-02-14T04:29:47;9.02;;;5.35;;
9675;SDS011;4876;42.656;23.292;2024-02-14T04:32:13;10.95;;;5.53;;
9675;SDS011;4876;42.656;23.292;2024-02-14T04:34:39;10.98;;;5.63;;
9675;SDS011;4876;42.656;23.292;2024-02-14T04:37:06;10.55;;;5.70;;
9675;SDS011;4876;42.656;23.292;2024-02-14T04:39:38;16.10;;;5.70;;
9675;SDS011;4876;42.656;23.292;2024-02-14T04:42:04;10.98;;;5.25;;
9675;SDS011;4876;42.656;23.292;2024-02-14T04:44:30;11.05;;;5.25;;
9675;SDS011;4876;42.656;23.292;2024-02-14T04:46:59;10.68;;;5.22;;
9675;SDS011;4876;42.656;23.292;2024-02-14T04:49:25;13.30;;;5.82;;
9675;SDS011;4876;42.656;23.292;2024-02-14T04:51:51;13.23;;;5.68;;
9675;SDS011;4876;42.656;23.292;2024-02-14T04:54:17;14.32;;;6.10;;
9675;SDS011;4876;42.656;23.292;2024-02-14T04:56:43;9.43;;;4.95;;
9675;SDS011;4876;42.656;23.292;2024-02-14T04:59:10;9.57;;;5.68;;
9675;SDS011;4876;42.656;23.292;2024-02-14T05:01:36;11.85;;;6.50;;
9675;SDS011;4876;42.656;23.292;2024-02-14T05:04:02;12.07;;;6.38;;
9675;SDS011;4876;42.656;23.292;2024-02-14T05:06:28;12.45;;;6.38;;
9675;SDS011;4876;42.656;23.292;2024-02-14T05:08:53;12.95;;;6.32;;
9675;SDS011;4876;42.656;23.292;2024-02-14T05:11:19;12.20;;;6.78;;
9675;SDS011;4876;42.656;23.292;2024-02-14T05:13:45;13.00;;;6.10;;
9675;SDS011;4876;42.656;23.292;2024-02-14T05:16:11;9.57;;;5.82;;
9675;SDS011;4876;42.656;23.292;2024-02-14T05:18:37;12.50;;;6.55;;
9675;SDS011;4876;42.656;23.292;2024-02-14T05:21:06;9.55;;;5.53;;
9675;SDS011;4876;42.656;23.292;2024-02-14T05:23:33;11.48;;;6.22;;
9675;SDS011;4876;42.656;23.292;2024-02-14T05:26:00;10.80;;;6.13;;
9675;SDS011;4876;42.656;23.292;2024-02-14T05:28:27;11.60;;;6.22;;
9675;SDS011;4876;42.656;23.292;2024-02-14T05:30:53;12.75;;;6.53;;
9675;SDS011;4876;42.656;23.292;2024-02-14T05:33:19;13.77;;;6.88;;
9675;SDS011;4876;42.656;23.292;2024-02-14T05:35:47;11.57;;;6.60;;
9675;SDS011;4876;42.656;23.292;2024-02-14T05:38:17;13.05;;;6.65;;
9675;SDS011;4876;42.656;23.292;2024-02-14T05:40:45;12.75;;;7.05;;
9675;SDS011;4876;42.656;23.292;2024-02-14T05:43:11;12.93;;;6.80;;
9675;SDS011;4876;42.656;23.292;2024-02-14T05:45:36;13.90;;;7.93;;
9675;SDS011;4876;42.656;23.292;2024-02-14T05:48:02;11.27;;;6.53;;
9675;SDS011;4876;42.656;23.292;2024-02-14T05:50:28;12.55;;;6.90;;
9675;SDS011;4876;42.656;23.292;2024-02-14T05:52:54;14.40;;;7.38;;
9675;SDS011;4876;42.656;23.292;2024-02-14T05:55:20;14.57;;;7.95;;
9675;SDS011;4876;42.656;23.292;2024-02-14T05:57:46;10.35;;;7.05;;
9675;SDS011;4876;42.656;23.292;2024-02-14T06:00:11;13.52;;;7.18;;
9675;SDS011;4876;42.656;23.292;2024-02-14T06:02:38;12.20;;;6.20;;
9675;SDS011;4876;42.656;23.292;2024-02-14T06:05:05;11.95;;;6.07;;
9675;SDS011;4876;42.656;23.292;2024-02-14T06:07:35;10.77;;;6.03;;
9675;SDS011;4876;42.656;23.292;2024-02-14T06:10:01;11.85;;;6.43;;
9675;SDS011;4876;42.656;23.292;2024-02-14T06:12:26;13.90;;;6.55;;
9675;SDS011;4876;42.656;23.292;2024-02-14T06:14:52;11.65;;;6.90;;
9675;SDS011;4876;42.656;23.292;2024-02-14T06:17:17;10.93;;;7.07;;
9675;SDS011;4876;42.656;23.292;2024-02-14T06:19:43;12.02;;;6.25;;
9675;SDS011;4876;42.656;23.292;2024-02-14T06:22:09;12.02;;;6.20;;
9675;SDS011;4876;42.656;23.292;2024-02-14T06:24:35;12.75;;;6.50;;
9675;SDS011;4876;42.656;23.292;2024-02-14T06:27:01;11.60;;;6.63;;
9675;SDS011;4876;42.656;23.292;2024-02-14T06:29:26;8.40;;;4.82;;
9675;SDS011;4876;42.656;23.292;2024-02-14T06:31:52;10.57;;;6.30;;
9675;SDS011;4876;42.656;23.292;2024-02-14T06:34:17;11.55;;;6.60;;
9675;SDS011;4876;42.656;23.292;2024-02-14T06:36:45;14.82;;;6.60;;
9675;SDS011;4876;42.656;23.292;2024-02-14T06:39:11;10.00;;;5.95;;
9675;SDS011;4876;42.656;23.292;2024-02-14T06:41:37;9.40;;;5.72;;
9675;SDS011;4876;42.656;23.292;2024-02-14T06:44:03;10.45;;;5.03;;
9675;SDS011;4876;42.656;23.292;2024-02-14T06:46:31;9.05;;;5.78;;
9675;SDS011;4876;42.656;23.292;2024-02-14T06:48:57;12.30;;;6.40;;
9675;SDS011;4876;42.656;23.292;2024-02-14T06:51:23;12.07;;;5.35;;
9675;SDS011;4876;42.656;23.292;2024-02-14T06:53:49;9.88;;;5.28;;
9675;SDS011;4876;42.656;23.292;2024-02-14T06:56:15;10.93;;;6.15;;
9675;SDS011;4876;42.656;23.292;2024-02-14T06:58:41;10.80;;;6.10;;
9675;SDS011;4876;42.656;23.292;2024-02-14T07:01:07;11.20;;;6.57;;
9675;SDS011;4876;42.656;23.292;2024-02-14T07:03:33;10.60;;;5.70;;
9675;SDS011;4876;42.656;23.292;2024-02-14T07:05:58;13.70;;;6.63;;
9675;SDS011;4876;42.656;23.292;2024-02-14T07:08:24;9.38;;;5.78;;
9675;SDS011;4876;42.656;23.292;2024-02-14T07:10:54;8.43;;;5.60;;
9675;SDS011;4876;42.656;23.292;2024-02-14T07:13:20;13.73;;;6.47;;
9675;SDS011;4876;42.656;23.292;2024-02-14T07:15:45;9.23;;;5.35;;
9675;SDS011;4876;42.656;23.292;2024-02-14T07:18:12;9.05;;;5.45;;
9675;SDS011;4876;42.656;23.292;2024-02-14T07:20:37;10.27;;;5.40;;
9675;SDS011;4876;42.656;23.292;2024-02-14T07:23:03;8.43;;;5.28;;
9675;SDS011;4876;42.656;23.292;2024-02-14T07:25:30;8.90;;;4.85;;
9675;SDS011;4876;42.656;23.292;2024-02-14T07:27:56;7.88;;;4.75;;
9675;SDS011;4876;42.656;23.292;2024-02-14T07:30:21;11.52;;;5.28;;
9675;SDS011;4876;42.656;23.292;2024-02-14T07:32:47;8.15;;;5.05;;
9675;SDS011;4876;42.656;23.292;2024-02-14T07:35:13;10.32;;;6.20;;
9675;SDS011;4876;42.656;23.292;2024-02-14T07:37:38;13.20;;;5.03;;
9675;SDS011;4876;42.656;23.292;2024-02-14T07:40:04;11.15;;;4.90;;
9675;SDS011;4876;42.656;23.292;2024-02-14T07:42:31;10.95;;;5.30;;
9675;SDS011;4876;42.656;23.292;2024-02-14T07:44:56;10.40;;;5.65;;
9675;SDS011;4876;42.656;23.292;2024-02-14T07:47:22;10.27;;;4.35;;
9675;SDS011;4876;42.656;23.292;2024-02-14T07:49:48;10.88;;;5.38;;
9675;SDS011;4876;42.656;23.292;2024-02-14T07:52:13;10.57;;;4.93;;
9675;SDS011;4876;42.656;23.292;2024-02-14T07:54:39;8.07;;;4.70;;
9675;SDS011;4876;42.656;23.292;2024-02-14T07:57:04;14.15;;;5.43;;
9675;SDS011;4876;42.656;23.292;2024-02-14T07:59:30;9.73;;;5.45;;
9675;SDS011;4876;42.656;23.292;2024-02-14T08:01:56;9.10;;;5.10;;
9675;SDS011;4876;42.656;23.292;2024-02-14T08:04:22;8.93;;;4.93;;
9675;SDS011;4876;42.656;23.292;2024-02-14T08:06:48;10.15;;;5.43;;
9675;SDS011;4876;42.656;23.292;2024-02-14T08:09:16;9.73;;;4.60;;
9675;SDS011;4876;42.656;23.292;2024-02-14T08:11:42;9.95;;;4.90;;
9675;SDS011;4876;42.656;23.292;2024-02-14T08:14:07;7.60;;;4.75;;
9675;SDS011;4876;42.656;23.292;2024-02-14T08:16:33;10.88;;;5.45;;
9675;SDS011;4876;42.656;23.292;2024-02-14T08:19:00;9.55;;;5.22;;
9675;SDS011;4876;42.656;23.292;2024-02-14T08:21:26;10.18;;;5.45;;
9675;SDS011;4876;42.656;23.292;2024-02-14T08:23:53;11.00;;;5.70;;
9675;SDS011;4876;42.656;23.292;2024-02-14T08:26:20;10.18;;;5.57;;
9675;SDS011;4876;42.656;23.292;2024-02-14T08:28:48;9.02;;;4.97;;
9675;SDS011;4876;42.656;23.292;2024-02-14T08:31:14;11.80;;;5.30;;
9675;SDS011;4876;42.656;23.292;2024-02-14T08:33:40;8.18;;;4.60;;
9675;SDS011;4876;42.656;23.292;2024-02-14T08:36:06;8.23;;;4.57;;
9675;SDS011;4876;42.656;23.292;2024-02-14T08:38:32;9.30;;;4.45;;
9675;SDS011;4876;42.656;23.292;2024-02-14T08:40:58;8.57;;;4.60;;
9675;SDS011;4876;42.656;23.292;2024-02-14T08:43:23;9.57;;;5.28;;
9675;SDS011;4876;42.656;23.292;2024-02-14T08:45:53;10.00;;;5.13;;
9675;SDS011;4876;42.656;23.292;2024-02-14T08:50:49;10.23;;;5.18;;
9675;SDS011;4876;42.656;23.292;2024-02-14T08:53:14;6.43;;;4.45;;
9675;SDS011;4876;42.656;23.292;2024-02-14T08:55:41;8.30;;;4.50;;
9675;SDS011;4876;42.656;23.292;2024-02-14T08:58:06;9.02;;;5.05;;
9675;SDS011;4876;42.656;23.292;2024-02-14T09:00:34;10.00;;;5.35;;
9675;SDS011;4876;42.656;23.292;2024-02-14T09:03:06;7.35;;;4.93;;
9675;SDS011;4876;42.656;23.292;2024-02-14T09:05:31;12.57;;;5.47;;
9675;SDS011;4876;42.656;23.292;2024-02-14T09:07:57;9.75;;;4.38;;
9675;SDS011;4876;42.656;23.292;2024-02-14T09:10:23;8.50;;;4.78;;
9675;SDS011;4876;42.656;23.292;2024-02-14T09:12:48;8.32;;;4.75;;
9675;SDS011;4876;42.656;23.292;2024-02-14T09:15:14;8.98;;;4.93;;
9675;SDS011;4876;42.656;23.292;2024-02-14T09:17:40;9.23;;;5.38;;
9675;SDS011;4876;42.656;23.292;2024-02-14T09:20:07;9.15;;;5.72;;
9675;SDS011;4876;42.656;23.292;2024-02-14T09:22:37;9.13;;;5.25;;
9675;SDS011;4876;42.656;23.292;2024-02-14T09:25:03;8.30;;;4.80;;
9675;SDS011;4876;42.656;23.292;2024-02-14T09:27:32;9.68;;;4.63;;
9675;SDS011;4876;42.656;23.292;2024-02-14T09:29:58;8.48;;;5.28;;
9675;SDS011;4876;42.656;23.292;2024-02-14T09:32:24;8.95;;;5.35;;
9675;SDS011;4876;42.656;23.292;2024-02-14T09:34:50;8.57;;;4.57;;
9675;SDS011;4876;42.656;23.292;2024-02-14T09:37:15;8.95;;;4.63;;
9675;SDS011;4876;42.656;23.292;2024-02-14T09:39:41;8.02;;;5.38;;
9675;SDS011;4876;42.656;23.292;2024-02-14T09:42:09;7.25;;;4.10;;
9675;SDS011;4876;42.656;23.292;2024-02-14T09:44:38;10.40;;;5.28;;
9675;SDS011;4876;42.656;23.292;2024-02-14T09:47:05;9.43;;;5.47;;
9675;SDS011;4876;42.656;23.292;2024-02-14T09:49:32;7.90;;;4.65;;
9675;SDS011;4876;42.656;23.292;2024-02-14T09:54:27;8.32;;;4.90;;
9675;SDS011;4876;42.656;23.292;2024-02-14T09:56:56;8.40;;;4.50;;
9675;SDS011;4876;42.656;23.292;2024-02-14T09:59:23;10.23;;;5.10;;
9675;SDS011;4876;42.656;23.292;2024-02-14T10:01:49;8.95;;;5.60;;
9675;SDS011;4876;42.656;23.292;2024-02-14T10:04:16;9.65;;;4.45;;
9675;SDS011;4876;42.656;23.292;2024-02-14T10:06:44;8.00;;;4.90;;
9675;SDS011;4876;42.656;23.292;2024-02-14T10:09:10;8.50;;;4.50;;
9675;SDS011;4876;42.656;23.292;2024-02-14T10:11:36;9.32;;;4.72;;
9675;SDS011;4876;42.656;23.292;2024-02-14T10:14:04;9.02;;;5.20;;
9675;SDS011;4876;42.656;23.292;2024-02-14T10:16:34;8.05;;;4.47;;
9675;SDS011;4876;42.656;23.292;2024-02-14T10:19:00;7.30;;;4.82;;
9675;SDS011;4876;42.656;23.292;2024-02-14T10:21:26;7.70;;;4.05;;
9675;SDS011;4876;42.656;23.292;2024-02-14T10:23:53;7.13;;;3.92;;
9675;SDS011;4876;42.656;23.292;2024-02-14T10:28:47;8.45;;;4.72;;
9675;SDS011;4876;42.656;23.292;2024-02-14T10:31:13;10.90;;;4.55;;
9675;SDS011;4876;42.656;23.292;2024-02-14T10:33:39;6.65;;;4.13;;
9675;SDS011;4876;42.656;23.292;2024-02-14T10:36:07;9.10;;;5.15;;
9675;SDS011;4876;42.656;23.292;2024-02-14T10:38:34;7.25;;;4.68;;
9675;SDS011;4876;42.656;23.292;2024-02-14T10:41:00;6.63;;;4.20;;
9675;SDS011;4876;42.656;23.292;2024-02-14T10:43:26;9.43;;;4.50;;
9675;SDS011;4876;42.656;23.292;2024-02-14T10:45:56;8.95;;;4.72;;
9675;SDS011;4876;42.656;23.292;2024-02-14T10:48:23;6.22;;;4.22;;
9675;SDS011;4876;42.656;23.292;2024-02-14T10:50:52;9.48;;;4.38;;
9675;SDS011;4876;42.656;23.292;2024-02-14T10:53:20;6.70;;;4.00;;
9675;SDS011;4876;42.656;23.292;2024-02-14T10:55:47;7.88;;;4.25;;
9675;SDS011;4876;42.656;23.292;2024-02-14T10:58:15;7.47;;;3.90;;
9675;SDS011;4876;42.656;23.292;2024-02-14T11:00:42;7.88;;;4.30;;
9675;SDS011;4876;42.656;23.292;2024-02-14T11:03:09;11.07;;;5.13;;
9675;SDS011;4876;42.656;23.292;2024-02-14T11:05:45;10.35;;;4.32;;
9675;SDS011;4876;42.656;23.292;2024-02-14T11:08:14;7.13;;;4.40;;
9675;SDS011;4876;42.656;23.292;2024-02-14T11:10:40;9.82;;;4.82;;
9675;SDS011;4876;42.656;23.292;2024-02-14T11:13:09;10.07;;;4.97;;
9675;SDS011;4876;42.656;23.292;2024-02-14T11:15:38;8.75;;;5.20;;
9675;SDS011;4876;42.656;23.292;2024-02-14T11:18:05;8.63;;;4.65;;
9675;SDS011;4876;42.656;23.292;2024-02-14T11:20:35;7.57;;;4.25;;
9675;SDS011;4876;42.656;23.292;2024-02-14T11:23:05;7.22;;;4.40;;
9675;SDS011;4876;42.656;23.292;2024-02-14T11:25:36;7.05;;;3.95;;
9675;SDS011;4876;42.656;23.292;2024-02-14T11:28:18;7.07;;;3.70;;
9675;SDS011;4876;42.656;23.292;2024-02-14T11:30:48;8.52;;;4.18;;
9675;SDS011;4876;42.656;23.292;2024-02-14T11:35:49;6.47;;;4.38;;
9675;SDS011;4876;42.656;23.292;2024-02-14T11:38:16;7.13;;;4.05;;
9675;SDS011;4876;42.656;23.292;2024-02-14T11:40:43;8.60;;;4.65;;
9675;SDS011;4876;42.656;23.292;2024-02-14T11:43:15;9.25;;;4.47;;
9675;SDS011;4876;42.656;23.292;2024-02-14T11:45:43;7.95;;;3.80;;
9675;SDS011;4876;42.656;23.292;2024-02-14T11:48:13;9.82;;;4.72;;
9675;SDS011;4876;42.656;23.292;2024-02-14T11:50:39;8.35;;;4.90;;
9675;SDS011;4876;42.656;23.292;2024-02-14T11:53:07;8.25;;;4.40;;
9675;SDS011;4876;42.656;23.292;2024-02-14T11:55:36;6.90;;;3.90;;
9675;SDS011;4876;42.656;23.292;2024-02-14T11:58:06;8.07;;;4.40;;
9675;SDS011;4876;42.656;23.292;2024-02-14T12:00:41;8.43;;;4.57;;
9675;SDS011;4876;42.656;23.292;2024-02-14T12:03:08;7.68;;;4.10;;
9675;SDS011;4876;42.656;23.292;2024-02-14T12:05:54;7.63;;;4.00;;
9675;SDS011;4876;42.656;23.292;2024-02-14T12:08:21;10.63;;;4.65;;
9675;SDS011;4876;42.656;23.292;2024-02-14T12:10:48;7.63;;;3.75;;
9675;SDS011;4876;42.656;23.292;2024-02-14T12:13:20;7.68;;;4.45;;
9675;SDS011;4876;42.656;23.292;2024-02-14T12:15:50;7.68;;;4.63;;
9675;SDS011;4876;42.656;23.292;2024-02-14T12:18:17;7.78;;;4.25;;
9675;SDS011;4876;42.656;23.292;2024-02-14T12:20:43;6.90;;;3.88;;
9675;SDS011;4876;42.656;23.292;2024-02-14T12:23:14;6.15;;;4.20;;
9675;SDS011;4876;42.656;23.292;2024-02-14T12:25:42;6.70;;;3.97;;
9675;SDS011;4876;42.656;23.292;2024-02-14T12:28:08;7.00;;;4.32;;
9675;SDS011;4876;42.656;23.292;2024-02-14T12:30:45;9.02;;;4.63;;
9675;SDS011;4876;42.656;23.292;2024-02-14T12:33:21;6.60;;;3.75;;
9675;SDS011;4876;42.656;23.292;2024-02-14T12:35:49;7.78;;;4.10;;
9675;SDS011;4876;42.656;23.292;2024-02-14T12:38:16;8.82;;;4.22;;
9675;SDS011;4876;42.656;23.292;2024-02-14T12:40:42;8.25;;;3.67;;
9675;SDS011;4876;42.656;23.292;2024-02-14T12:43:09;6.60;;;3.85;;
9675;SDS011;4876;42.656;23.292;2024-02-14T12:45:36;5.80;;;3.58;;
9675;SDS011;4876;42.656;23.292;2024-02-14T12:48:02;9.77;;;4.60;;
9675;SDS011;4876;42.656;23.292;2024-02-14T12:50:28;6.75;;;4.10;;
9675;SDS011;4876;42.656;23.292;2024-02-14T12:52:53;7.35;;;3.58;;
9675;SDS011;4876;42.656;23.292;2024-02-14T12:55:19;7.88;;;3.63;;
9675;SDS011;4876;42.656;23.292;2024-02-14T12:57:45;8.23;;;3.83;;
9675;SDS011;4876;42.656;23.292;2024-02-14T13:00:11;7.53;;;3.85;;
9675;SDS011;4876;42.656;23.292;2024-02-14T13:02:37;9.90;;;3.80;;
9675;SDS011;4876;42.656;23.292;2024-02-14T13:05:05;6.43;;;2.97;;
9675;SDS011;4876;42.656;23.292;2024-02-14T13:07:32;6.10;;;3.67;;
9675;SDS011;4876;42.656;23.292;2024-02-14T13:09:58;9.82;;;3.83;;
9675;SDS011;4876;42.656;23.292;2024-02-14T13:12:23;9.43;;;3.72;;
9675;SDS011;4876;42.656;23.292;2024-02-14T13:14:49;9.55;;;4.10;;
9675;SDS011;4876;42.656;23.292;2024-02-14T13:17:14;8.30;;;4.32;;
9675;SDS011;4876;42.656;23.292;2024-02-14T13:19:40;8.38;;;4.50;;
9675;SDS011;4876;42.656;23.292;2024-02-14T13:22:08;10.57;;;4.22;;
9675;SDS011;4876;42.656;23.292;2024-02-14T13:24:33;7.38;;;3.97;;
9675;SDS011;4876;42.656;23.292;2024-02-14T13:26:59;7.07;;;3.78;;
9675;SDS011;4876;42.656;23.292;2024-02-14T13:29:24;7.93;;;4.22;;
9675;SDS011;4876;42.656;23.292;2024-02-14T13:31:50;8.05;;;4.53;;
9675;SDS011;4876;42.656;23.292;2024-02-14T13:34:16;7.70;;;4.25;;
9675;SDS011;4876;42.656;23.292;2024-02-14T13:36:45;8.50;;;3.85;;
9675;SDS011;4876;42.656;23.292;2024-02-14T13:39:13;8.20;;;4.65;;
9675;SDS011;4876;42.656;23.292;2024-02-14T13:41:39;6.75;;;3.85;;
9675;SDS011;4876;42.656;23.292;2024-02-14T13:44:09;7.75;;;3.97;;
9675;SDS011;4876;42.656;23.292;2024-02-14T13:46:35;7.57;;;3.78;;
9675;SDS011;4876;42.656;23.292;2024-02-14T13:49:00;8.82;;;3.70;;
9675;SDS011;4876;42.656;23.292;2024-02-14T13:51:26;10.43;;;4.13;;
9675;SDS011;4876;42.656;23.292;2024-02-14T13:53:55;10.02;;;4.18;;
9675;SDS011;4876;42.656;23.292;2024-02-14T13:56:20;10.95;;;3.88;;
9675;SDS011;4876;42.656;23.292;2024-02-14T13:58:47;7.85;;;4.10;;
9675;SDS011;4876;42.656;23.292;2024-02-14T14:01:14;6.03;;;3.45;;
9675;SDS011;4876;42.656;23.292;2024-02-14T14:03:40;7.07;;;3.67;;
9675;SDS011;4876;42.656;23.292;2024-02-14T14:06:06;9.10;;;3.67;;
9675;SDS011;4876;42.656;23.292;2024-02-14T14:08:33;7.90;;;3.60;;
9675;SDS011;4876;42.656;23.292;2024-02-14T14:11:02;9.35;;;3.80;;
9675;SDS011;4876;42.656;23.292;2024-02-14T14:13:28;8.05;;;4.03;;
9675;SDS011;4876;42.656;23.292;2024-02-14T14:15:56;7.60;;;3.30;;
9675;SDS011;4876;42.656;23.292;2024-02-14T14:18:22;7.53;;;4.00;;
9675;SDS011;4876;42.656;23.292;2024-02-14T14:20:48;13.52;;;3.63;;
9675;SDS011;4876;42.656;23.292;2024-02-14T14:23:14;8.18;;;4.03;;
9675;SDS011;4876;42.656;23.292;2024-02-14T14:25:39;9.32;;;3.75;;
9675;SDS011;4876;42.656;23.292;2024-02-14T14:28:05;7.18;;;4.05;;
9675;SDS011;4876;42.656;23.292;2024-02-14T14:30:30;7.95;;;4.03;;
9675;SDS011;4876;42.656;23.292;2024-02-14T14:32:56;8.90;;;4.03;;
9675;SDS011;4876;42.656;23.292;2024-02-14T14:35:21;6.10;;;3.53;;
9675;SDS011;4876;42.656;23.292;2024-02-14T14:37:47;7.60;;;4.15;;
9675;SDS011;4876;42.656;23.292;2024-02-14T14:40:12;6.47;;;3.58;;
9675;SDS011;4876;42.656;23.292;2024-02-14T14:42:38;9.45;;;3.97;;
9675;SDS011;4876;42.656;23.292;2024-02-14T14:45:04;7.32;;;3.60;;
9675;SDS011;4876;42.656;23.292;2024-02-14T14:47:30;10.55;;;4.30;;
9675;SDS011;4876;42.656;23.292;2024-02-14T14:49:55;11.40;;;4.18;;
9675;SDS011;4876;42.656;23.292;2024-02-14T14:52:22;6.85;;;4.00;;
9675;SDS011;4876;42.656;23.292;2024-02-14T14:54:47;11.35;;;4.38;;
9675;SDS011;4876;42.656;23.292;2024-02-14T14:57:13;11.57;;;3.90;;
9675;SDS011;4876;42.656;23.292;2024-02-14T14:59:43;8.85;;;3.42;;
9675;SDS011;4876;42.656;23.292;2024-02-14T15:02:09;8.32;;;3.90;;
9675;SDS011;4876;42.656;23.292;2024-02-14T15:04:34;10.38;;;4.55;;